Time;durP1;ratioP1;P1;durP2;ratioP2;P2;SDS_P1;SDS_P2;PMS_P1;PMS_P2;Temp;Humidity;BMP_temperature;BMP_pressure;BME280_temperature;BME280_humidity;BME280_pressure;Samples;Min_cycle;Max_cycle;Signal;HPM_P1;HPM_P2
2021/12/24 00:01:43;;;;;;;5.70;5.15;;;;;;;;;;5013425;28;20045;-51
2021/12/24 00:04:09;;;;;;;7.95;5.38;;;;;;;;;;5010425;28;20036;-51
2021/12/24 00:06:36;;;;;;;6.30;5.22;;;;;;;;;;5006272;28;20100;-51
2021/12/24 00:09:03;;;;;;;6.00;4.45;;;;;;;;;;5011648;28;20041;-52
2021/12/24 00:11:30;;;;;;;4.80;4.18;;;;;;;;;;5012255;28;20105;-50
2021/12/24 00:13:55;;;;;;;6.00;5.32;;;;;;;;;;5010568;28;20100;-50
2021/12/24 00:16:28;;;;;;;4.50;4.07;;;;;;;;;;5009572;28;20026;-49
2021/12/24 00:19:13;;;;;;;5.60;4.75;;;;;;;;;;5007626;28;20073;-48
2021/12/24 00:35:30;;;;;;;5.57;4.97;;;;;;;;;;5011147;28;20049;-49
2021/12/24 00:38:01;;;;;;;8.15;5.32;;;;;;;;;;5008907;28;20022;-47
2021/12/24 00:40:27;;;;;;;4.45;4.05;;;;;;;;;;5010238;28;20021;-48
2021/12/24 00:42:55;;;;;;;3.70;3.38;;;;;;;;;;5007249;28;20583;-49
2021/12/24 00:45:27;;;;;;;8.20;4.97;;;;;;;;;;5006695;28;20084;-51
2021/12/24 00:47:53;;;;;;;5.60;4.47;;;;;;;;;;5010646;28;20033;-48
2021/12/24 00:50:24;;;;;;;5.32;4.45;;;;;;;;;;5012125;28;20029;-49
2021/12/24 00:52:57;;;;;;;12.02;4.78;;;;;;;;;;5005334;28;20496;-49
2021/12/24 00:55:25;;;;;;;6.07;5.47;;;;;;;;;;5006304;28;20030;-48
2021/12/24 00:57:54;;;;;;;5.28;4.55;;;;;;;;;;5003248;28;20041;-51
2021/12/24 01:00:23;;;;;;;6.13;4.88;;;;;;;;;;5000302;28;20116;-49
2021/12/24 01:02:50;;;;;;;4.80;4.40;;;;;;;;;;5003973;28;20112;-50
2021/12/24 01:05:17;;;;;;;4.50;4.10;;;;;;;;;;5000081;28;20022;-50
2021/12/24 01:07:46;;;;;;;4.68;4.28;;;;;;;;;;5011215;28;20037;-48
2021/12/24 01:10:14;;;;;;;7.55;6.05;;;;;;;;;;5007300;28;20487;-50
2021/12/24 01:12:40;;;;;;;5.38;4.88;;;;;;;;;;5005892;28;20033;-48
2021/12/24 01:15:07;;;;;;;4.30;3.90;;;;;;;;;;5006786;28;20026;-49
2021/12/24 01:20:06;;;;;;;4.78;4.05;;;;;;;;;;5014055;28;20112;-50
2021/12/24 01:25:27;;;;;;;7.22;5.95;;;;;;;;;;5014062;28;20359;-48
2021/12/24 01:28:15;;;;;;;4.32;3.65;;;;;;;;;;5007191;28;20422;-50
2021/12/24 01:39:12;;;;;;;6.38;4.05;;;;;;;;;;4999673;28;20105;-50
2021/12/24 01:44:27;;;;;;;4.80;4.30;;;;;;;;;;5006166;28;20087;-51
2021/12/24 01:46:54;;;;;;;5.78;5.28;;;;;;;;;;4998544;28;20030;-52
2021/12/24 01:49:20;;;;;;;5.35;4.70;;;;;;;;;;5005349;28;20095;-51
2021/12/24 01:51:45;;;;;;;9.23;5.15;;;;;;;;;;5006566;28;20108;-53
2021/12/24 01:54:11;;;;;;;4.65;3.97;;;;;;;;;;5005576;28;20045;-53
2021/12/24 01:56:37;;;;;;;4.85;4.32;;;;;;;;;;5007871;28;20446;-49
2021/12/24 01:59:03;;;;;;;5.93;4.97;;;;;;;;;;5008535;28;20094;-51
2021/12/24 02:01:28;;;;;;;5.18;4.28;;;;;;;;;;5006001;28;20057;-52
2021/12/24 02:03:54;;;;;;;4.82;4.03;;;;;;;;;;5005469;28;20164;-52
2021/12/24 02:06:20;;;;;;;4.82;4.28;;;;;;;;;;5004498;28;20080;-50
2021/12/24 02:08:45;;;;;;;5.03;4.25;;;;;;;;;;5008125;28;20041;-51
2021/12/24 02:11:11;;;;;;;6.47;4.85;;;;;;;;;;5000302;28;20033;-52
2021/12/24 02:13:38;;;;;;;4.38;3.88;;;;;;;;;;5005280;28;20044;-53
2021/12/24 02:16:18;;;;;;;6.65;4.80;;;;;;;;;;5003804;28;20068;-50
2021/12/24 02:29:20;;;;;;;4.90;4.35;;;;;;;;;;5005305;28;20034;-51
2021/12/24 02:31:46;;;;;;;5.03;4.55;;;;;;;;;;5010845;28;20053;-50
2021/12/24 02:34:11;;;;;;;5.00;4.03;;;;;;;;;;5012657;28;20026;-51
2021/12/24 02:36:37;;;;;;;4.28;3.88;;;;;;;;;;5002839;28;20117;-52
2021/12/24 02:39:04;;;;;;;4.78;3.97;;;;;;;;;;5008490;28;20023;-53
2021/12/24 02:41:29;;;;;;;6.35;5.20;;;;;;;;;;5010667;28;20085;-52
2021/12/24 02:43:55;;;;;;;4.38;3.95;;;;;;;;;;5003049;28;20042;-53
2021/12/24 02:47:09;;;;;;;3.83;3.42;;;;;;;;;;5005552;28;20026;-51
2021/12/24 02:53:53;;;;;;;7.45;4.72;;;;;;;;;;4994779;28;20133;-50
2021/12/24 02:54:44;;;;;;;4.47;3.88;;;;;;;;;;5001560;28;20042;-50
2021/12/24 02:57:10;;;;;;;4.20;3.80;;;;;;;;;;5003633;28;20022;-49
2021/12/24 02:59:46;;;;;;;8.50;4.45;;;;;;;;;;5006469;28;20375;-52
2021/12/24 03:02:12;;;;;;;9.55;5.22;;;;;;;;;;5006915;28;20808;-47
2021/12/24 03:04:37;;;;;;;5.95;3.90;;;;;;;;;;5006805;28;20042;-51
2021/12/24 03:07:03;;;;;;;7.47;4.38;;;;;;;;;;5003992;28;20137;-50
2021/12/24 03:09:28;;;;;;;5.15;4.53;;;;;;;;;;5005082;28;20473;-49
2021/12/24 03:11:54;;;;;;;5.85;5.28;;;;;;;;;;5005813;28;20117;-49
2021/12/24 03:14:20;;;;;;;5.20;4.70;;;;;;;;;;5006168;28;20514;-50
2021/12/24 03:16:54;;;;;;;3.88;3.47;;;;;;;;;;5018716;28;20041;-49
2021/12/24 03:19:24;;;;;;;5.45;4.90;;;;;;;;;;5005826;28;20037;-52
2021/12/24 03:21:56;;;;;;;4.45;4.05;;;;;;;;;;5005815;28;20141;-50
2021/12/24 03:26:47;;;;;;;12.30;4.30;;;;;;;;;;5006090;28;20057;-49
2021/12/24 03:29:15;;;;;;;4.15;3.60;;;;;;;;;;5001018;28;20353;-49
2021/12/24 03:31:41;;;;;;;4.20;3.80;;;;;;;;;;5004110;28;20109;-49
2021/12/24 03:34:10;;;;;;;6.10;4.30;;;;;;;;;;5007035;28;20034;-53
2021/12/24 03:36:36;;;;;;;4.05;3.65;;;;;;;;;;5008655;28;20099;-52
2021/12/24 03:39:04;;;;;;;3.83;3.42;;;;;;;;;;5007750;28;20033;-52
2021/12/24 03:41:29;;;;;;;5.53;4.72;;;;;;;;;;5008959;28;20034;-52
2021/12/24 03:43:54;;;;;;;4.43;4.03;;;;;;;;;;5010614;28;20033;-50
2021/12/24 03:46:28;;;;;;;8.90;4.40;;;;;;;;;;5006157;28;20077;-49
2021/12/24 03:49:01;;;;;;;6.90;4.90;;;;;;;;;;5011502;28;20080;-50
2021/12/24 03:56:51;;;;;;;4.75;4.15;;;;;;;;;;5007341;28;20038;-50
2021/12/24 03:59:16;;;;;;;8.40;3.88;;;;;;;;;;5008532;28;20046;-48
2021/12/24 04:01:42;;;;;;;5.03;4.45;;;;;;;;;;5008558;28;20073;-48
2021/12/24 04:04:08;;;;;;;4.10;3.70;;;;;;;;;;5006518;28;20046;-49
2021/12/24 04:06:33;;;;;;;4.43;4.03;;;;;;;;;;5004187;28;20026;-47
2021/12/24 04:09:00;;;;;;;3.83;3.45;;;;;;;;;;5002211;28;20121;-48
2021/12/24 04:11:25;;;;;;;3.70;3.30;;;;;;;;;;5005592;28;20368;-51
2021/12/24 04:13:51;;;;;;;4.68;3.95;;;;;;;;;;5009853;28;20048;-52
2021/12/24 04:16:16;;;;;;;4.07;3.60;;;;;;;;;;5008437;28;20512;-50
2021/12/24 04:18:58;;;;;;;6.40;5.28;;;;;;;;;;5001429;28;20620;-51
2021/12/24 04:26:51;;;;;;;3.85;3.20;;;;;;;;;;5010241;28;20061;-49
2021/12/24 04:29:17;;;;;;;5.72;4.13;;;;;;;;;;5008281;28;20053;-48
2021/12/24 04:31:46;;;;;;;5.25;4.38;;;;;;;;;;5007295;28;20885;-52
2021/12/24 04:34:13;;;;;;;5.20;4.38;;;;;;;;;;5008276;28;20034;-50
2021/12/24 04:53:06;;;;;;;4.15;3.55;;;;;;;;;;5012055;28;20041;-50
2021/12/24 05:03:42;;;;;;;5.00;4.43;;;;;;;;;;5011216;28;20608;-49
2021/12/24 05:11:13;;;;;;;;;;;;;;;;;;5008695;28;20043;-50
2021/12/24 05:13:39;;;;;;;4.60;4.20;;;;;;;;;;5008280;28;19913;-49
2021/12/24 05:16:17;;;;;;;4.28;3.88;;;;;;;;;;5006157;28;20464;-49
2021/12/24 05:21:33;;;;;;;5.22;4.03;;;;;;;;;;5001124;28;20157;-52
2021/12/24 05:24:00;;;;;;;3.90;3.50;;;;;;;;;;5004065;28;20036;-58
2021/12/24 05:26:26;;;;;;;4.03;3.55;;;;;;;;;;5005634;28;20152;-58
2021/12/24 05:28:51;;;;;;;4.57;4.15;;;;;;;;;;5009652;28;20129;-58
2021/12/24 05:31:18;;;;;;;5.50;4.55;;;;;;;;;;5010916;28;20037;-58
2021/12/24 05:33:44;;;;;;;6.68;4.43;;;;;;;;;;5008685;28;20072;-57
2021/12/24 05:36:09;;;;;;;8.95;4.85;;;;;;;;;;5012019;28;20577;-57
2021/12/24 05:38:35;;;;;;;5.60;4.47;;;;;;;;;;5008616;28;20084;-57
2021/12/24 05:41:00;;;;;;;4.80;4.07;;;;;;;;;;5009660;28;20038;-57
2021/12/24 05:43:26;;;;;;;4.93;4.43;;;;;;;;;;5009989;28;20418;-57
2021/12/24 05:45:51;;;;;;;8.15;3.63;;;;;;;;;;5011179;28;20426;-56
2021/12/24 05:48:16;;;;;;;5.22;4.72;;;;;;;;;;4999512;28;20021;-57
2021/12/24 05:50:42;;;;;;;4.85;4.35;;;;;;;;;;5007677;28;20038;-58
2021/12/24 05:53:07;;;;;;;4.93;3.88;;;;;;;;;;4998815;28;20464;-58
2021/12/24 05:55:32;;;;;;;5.47;4.18;;;;;;;;;;5002520;28;20036;-59
2021/12/24 05:57:58;;;;;;;11.90;4.60;;;;;;;;;;4998381;28;20030;-58
2021/12/24 06:00:23;;;;;;;9.43;5.55;;;;;;;;;;5003046;28;20025;-59
2021/12/24 06:02:49;;;;;;;6.20;4.70;;;;;;;;;;5005900;28;20034;-58
2021/12/24 06:05:14;;;;;;;6.43;4.72;;;;;;;;;;5010465;28;20034;-57
2021/12/24 06:07:40;;;;;;;6.07;4.63;;;;;;;;;;5003498;28;20142;-59
2021/12/24 06:10:06;;;;;;;4.55;3.95;;;;;;;;;;5011656;28;20052;-58
2021/12/24 06:12:32;;;;;;;4.72;4.25;;;;;;;;;;5005171;28;20125;-59
2021/12/24 06:15:03;;;;;;;5.95;4.93;;;;;;;;;;5008781;28;20466;-59
2021/12/24 06:17:28;;;;;;;6.05;4.78;;;;;;;;;;5003454;28;20099;-58
2021/12/24 06:19:53;;;;;;;6.53;3.83;;;;;;;;;;5005006;28;20435;-59
2021/12/24 06:22:19;;;;;;;4.57;4.10;;;;;;;;;;5010358;28;20060;-58
2021/12/24 06:24:44;;;;;;;5.07;4.57;;;;;;;;;;5008403;28;20033;-59
2021/12/24 06:27:10;;;;;;;5.25;4.47;;;;;;;;;;5009107;28;20088;-57
2021/12/24 06:29:36;;;;;;;4.47;4.00;;;;;;;;;;5006089;28;20455;-58
2021/12/24 06:32:02;;;;;;;5.43;4.72;;;;;;;;;;5005496;28;20032;-59
2021/12/24 06:34:30;;;;;;;6.65;5.32;;;;;;;;;;5002629;28;20033;-57
2021/12/24 06:36:57;;;;;;;6.07;5.13;;;;;;;;;;5006851;28;20036;-60
2021/12/24 06:39:23;;;;;;;8.43;5.30;;;;;;;;;;5006291;28;20472;-60
2021/12/24 06:41:48;;;;;;;6.82;5.53;;;;;;;;;;5007207;28;20048;-60
2021/12/24 06:44:14;;;;;;;4.57;4.10;;;;;;;;;;5006271;28;20033;-59
2021/12/24 06:46:41;;;;;;;4.20;3.80;;;;;;;;;;5011405;28;20041;-59
2021/12/24 06:49:07;;;;;;;4.85;4.43;;;;;;;;;;5008214;28;20029;-59
2021/12/24 06:51:33;;;;;;;5.45;4.95;;;;;;;;;;4999877;28;20030;-59
2021/12/24 06:53:58;;;;;;;7.47;6.55;;;;;;;;;;5009131;28;20471;-59
2021/12/24 06:56:24;;;;;;;6.13;5.18;;;;;;;;;;5007598;28;20061;-60
2021/12/24 06:58:49;;;;;;;7.00;4.88;;;;;;;;;;5008994;28;20041;-60
2021/12/24 07:01:15;;;;;;;6.22;5.35;;;;;;;;;;5007951;28;20447;-60
2021/12/24 07:03:41;;;;;;;5.85;5.30;;;;;;;;;;5004639;28;20057;-60
2021/12/24 07:06:07;;;;;;;6.57;5.40;;;;;;;;;;5004496;28;20033;-60
2021/12/24 07:08:33;;;;;;;6.05;5.45;;;;;;;;;;5015666;28;20051;-60
2021/12/24 07:10:59;;;;;;;6.72;5.97;;;;;;;;;;5006293;28;20708;-59
2021/12/24 07:13:25;;;;;;;5.15;4.65;;;;;;;;;;5007621;28;20490;-59
2021/12/24 07:15:50;;;;;;;5.38;4.88;;;;;;;;;;5004845;28;20467;-59
2021/12/24 07:18:16;;;;;;;6.88;5.07;;;;;;;;;;5010890;28;20049;-59
2021/12/24 07:20:41;;;;;;;8.02;5.72;;;;;;;;;;5010573;28;20041;-59
2021/12/24 07:23:07;;;;;;;6.75;6.00;;;;;;;;;;5012660;28;20437;-59
2021/12/24 07:25:33;;;;;;;8.55;5.15;;;;;;;;;;5011451;28;20048;-59
2021/12/24 07:28:00;;;;;;;4.95;4.45;;;;;;;;;;5013108;28;20029;-60
2021/12/24 07:30:26;;;;;;;9.15;6.50;;;;;;;;;;5017050;28;20025;-59
2021/12/24 07:32:52;;;;;;;6.28;5.68;;;;;;;;;;5014548;28;20025;-60
2021/12/24 07:35:18;;;;;;;4.88;4.35;;;;;;;;;;5011251;28;20044;-60
2021/12/24 07:37:44;;;;;;;11.52;6.10;;;;;;;;;;5012845;28;20030;-59
2021/12/24 07:40:10;;;;;;;4.70;4.07;;;;;;;;;;5012677;28;20033;-59
2021/12/24 07:42:36;;;;;;;12.98;5.35;;;;;;;;;;5008761;28;20466;-59
2021/12/24 07:45:04;;;;;;;7.97;4.90;;;;;;;;;;5009797;28;20026;-59
2021/12/24 07:47:35;;;;;;;6.03;5.43;;;;;;;;;;5005411;28;20026;-59
2021/12/24 07:50:15;;;;;;;5.07;4.53;;;;;;;;;;5010972;28;20451;-60
2021/12/24 07:52:41;;;;;;;7.95;4.10;;;;;;;;;;5013490;28;20074;-60
2021/12/24 07:55:09;;;;;;;6.07;4.25;;;;;;;;;;5009994;28;20482;-59
2021/12/24 07:57:35;;;;;;;6.88;6.03;;;;;;;;;;5011110;28;20483;-60
2021/12/24 08:00:01;;;;;;;6.15;5.45;;;;;;;;;;5008988;28;20112;-59
2021/12/24 08:02:27;;;;;;;7.78;4.85;;;;;;;;;;5010718;28;20037;-60
2021/12/24 08:04:53;;;;;;;5.97;5.38;;;;;;;;;;5012729;28;20065;-59
2021/12/24 08:07:22;;;;;;;9.07;6.28;;;;;;;;;;5008844;28;20027;-59
2021/12/24 08:09:51;;;;;;;6.57;5.90;;;;;;;;;;5013407;28;20042;-60
2021/12/24 08:12:17;;;;;;;4.70;4.22;;;;;;;;;;5012126;28;20116;-59
2021/12/24 08:14:44;;;;;;;5.43;4.93;;;;;;;;;;5015404;28;20037;-59
2021/12/24 08:17:10;;;;;;;5.03;4.53;;;;;;;;;;5010363;28;20030;-59
2021/12/24 08:19:36;;;;;;;4.78;3.97;;;;;;;;;;5015733;28;20068;-60
2021/12/24 08:22:02;;;;;;;5.22;4.68;;;;;;;;;;5006281;28;20058;-60
2021/12/24 08:24:28;;;;;;;5.47;4.57;;;;;;;;;;5002093;28;20105;-60
2021/12/24 08:26:54;;;;;;;5.75;5.15;;;;;;;;;;5007682;28;20022;-60
2021/12/24 08:29:21;;;;;;;5.35;4.85;;;;;;;;;;5008746;28;20065;-60
2021/12/24 08:31:48;;;;;;;5.95;5.32;;;;;;;;;;5007228;28;20355;-60
2021/12/24 08:34:16;;;;;;;4.10;3.70;;;;;;;;;;5010496;28;20463;-60
2021/12/24 08:36:42;;;;;;;4.03;3.63;;;;;;;;;;5012683;28;20061;-60
2021/12/24 08:39:07;;;;;;;5.28;4.15;;;;;;;;;;5012468;28;20035;-59
2021/12/24 08:41:33;;;;;;;4.93;4.35;;;;;;;;;;5013469;28;20022;-60
2021/12/24 08:43:58;;;;;;;5.68;4.53;;;;;;;;;;5008657;28;20478;-59
2021/12/24 08:46:24;;;;;;;5.82;4.10;;;;;;;;;;5011123;28;20171;-60
2021/12/24 08:48:49;;;;;;;4.80;3.67;;;;;;;;;;5006971;28;20353;-60
2021/12/24 08:51:14;;;;;;;6.18;4.35;;;;;;;;;;5006404;28;20022;-59
2021/12/24 08:53:40;;;;;;;5.15;4.50;;;;;;;;;;5007355;28;20479;-60
2021/12/24 08:56:06;;;;;;;5.88;4.88;;;;;;;;;;5003040;28;20121;-59
2021/12/24 08:58:32;;;;;;;5.00;3.50;;;;;;;;;;5007627;28;20045;-60
2021/12/24 09:00:58;;;;;;;5.13;4.63;;;;;;;;;;4999217;28;20395;-59
2021/12/24 09:03:23;;;;;;;5.82;4.63;;;;;;;;;;5004090;28;20428;-61
2021/12/24 09:05:49;;;;;;;7.50;4.70;;;;;;;;;;5008654;28;20049;-59
2021/12/24 09:08:14;;;;;;;6.13;5.25;;;;;;;;;;5004025;28;20022;-60
2021/12/24 09:10:40;;;;;;;8.23;4.00;;;;;;;;;;5009752;28;20034;-60
2021/12/24 09:13:05;;;;;;;5.13;4.35;;;;;;;;;;5008857;28;20045;-60
2021/12/24 09:15:31;;;;;;;5.25;4.53;;;;;;;;;;5008780;28;20037;-60
2021/12/24 09:17:59;;;;;;;6.90;4.80;;;;;;;;;;5009837;28;20032;-60
2021/12/24 09:20:29;;;;;;;6.15;5.07;;;;;;;;;;5005670;28;20058;-60
2021/12/24 09:22:55;;;;;;;5.70;5.15;;;;;;;;;;5008352;28;20372;-60
2021/12/24 09:25:24;;;;;;;8.32;5.68;;;;;;;;;;5003731;28;20034;-60
2021/12/24 09:27:50;;;;;;;5.10;4.60;;;;;;;;;;5006452;28;20029;-60
2021/12/24 09:30:16;;;;;;;6.18;5.38;;;;;;;;;;5005941;28;20029;-60
2021/12/24 09:32:42;;;;;;;8.57;5.22;;;;;;;;;;5006156;28;20052;-60
2021/12/24 09:35:10;;;;;;;4.75;4.35;;;;;;;;;;5004800;28;20036;-60
2021/12/24 09:37:36;;;;;;;6.05;5.07;;;;;;;;;;5004126;28;20518;-60
2021/12/24 09:40:04;;;;;;;4.85;4.43;;;;;;;;;;4999393;28;20403;-59
2021/12/24 09:42:30;;;;;;;4.82;4.43;;;;;;;;;;5008527;28;20494;-59
2021/12/24 09:44:56;;;;;;;5.40;4.90;;;;;;;;;;5006917;28;20455;-59
2021/12/24 09:47:23;;;;;;;5.53;4.25;;;;;;;;;;5011130;28;20355;-60
2021/12/24 09:49:48;;;;;;;6.65;4.40;;;;;;;;;;5018514;28;20113;-60
2021/12/24 09:52:14;;;;;;;6.95;4.53;;;;;;;;;;5002253;28;20120;-59
2021/12/24 09:54:43;;;;;;;5.53;4.90;;;;;;;;;;5011967;28;20029;-59
2021/12/24 09:57:09;;;;;;;4.93;4.40;;;;;;;;;;5009305;28;20060;-59
2021/12/24 09:59:36;;;;;;;9.07;4.72;;;;;;;;;;5015699;28;20045;-59
2021/12/24 10:02:02;;;;;;;6.00;4.40;;;;;;;;;;5002021;28;20044;-59
2021/12/24 10:04:31;;;;;;;7.88;5.53;;;;;;;;;;5000932;28;20034;-60
2021/12/24 10:07:09;;;;;;;5.28;4.57;;;;;;;;;;5009785;28;20487;-60
2021/12/24 10:09:41;;;;;;;5.47;4.85;;;;;;;;;;5020200;28;20403;-59
2021/12/24 10:12:08;;;;;;;9.35;5.03;;;;;;;;;;5004013;28;20029;-61
2021/12/24 10:14:37;;;;;;;4.97;4.35;;;;;;;;;;5000251;28;20034;-59
2021/12/24 10:17:05;;;;;;;5.88;4.72;;;;;;;;;;5003432;28;20030;-59
2021/12/24 10:19:45;;;;;;;5.78;4.13;;;;;;;;;;5007546;28;20118;-59
2021/12/24 10:22:11;;;;;;;4.50;3.83;;;;;;;;;;5003905;28;20042;-59
2021/12/24 10:24:37;;;;;;;8.40;5.50;;;;;;;;;;5004211;28;20084;-59
2021/12/24 10:27:02;;;;;;;5.10;4.07;;;;;;;;;;5005944;28;20037;-59
2021/12/24 10:29:34;;;;;;;4.45;3.97;;;;;;;;;;5004895;28;20448;-59
2021/12/24 10:32:18;;;;;;;6.03;3.47;;;;;;;;;;5010939;28;20471;-59
2021/12/24 10:34:44;;;;;;;4.07;3.50;;;;;;;;;;5004724;28;20042;-59
2021/12/24 10:37:22;;;;;;;5.97;4.32;;;;;;;;;;5008307;28;20377;-59
2021/12/24 10:39:57;;;;;;;5.45;4.95;;;;;;;;;;5006401;28;20053;-59
2021/12/24 10:42:31;;;;;;;5.55;4.82;;;;;;;;;;5008853;28;20030;-59
2021/12/24 10:44:58;;;;;;;4.47;4.07;;;;;;;;;;5004390;28;20037;-59
2021/12/24 10:47:27;;;;;;;4.47;4.05;;;;;;;;;;5008824;28;20058;-59
2021/12/24 10:50:13;;;;;;;3.50;3.05;;;;;;;;;;5002348;28;20080;-58
2021/12/24 10:52:47;;;;;;;4.20;3.80;;;;;;;;;;5007780;28;20462;-59
2021/12/24 10:55:19;;;;;;;4.35;3.78;;;;;;;;;;5000829;28;20030;-59
2021/12/24 10:57:47;;;;;;;4.18;3.67;;;;;;;;;;5005219;28;20046;-58
2021/12/24 11:00:21;;;;;;;4.50;3.70;;;;;;;;;;5007488;28;20037;-60
2021/12/24 11:03:16;;;;;;;12.98;5.63;;;;;;;;;;5008734;28;20025;-59
2021/12/24 11:05:43;;;;;;;4.47;4.07;;;;;;;;;;4999113;28;20050;-59
2021/12/24 11:08:11;;;;;;;4.43;4.03;;;;;;;;;;5004567;28;20029;-60
2021/12/24 11:10:46;;;;;;;4.45;3.95;;;;;;;;;;4999698;28;20038;-60
2021/12/24 11:13:14;;;;;;;12.00;7.60;;;;;;;;;;5006480;28;20037;-60
2021/12/24 11:15:46;;;;;;;10.52;6.45;;;;;;;;;;5009974;28;20025;-59
2021/12/24 11:18:16;;;;;;;5.90;5.38;;;;;;;;;;5004521;28;20029;-59
2021/12/24 11:20:43;;;;;;;6.80;5.47;;;;;;;;;;5011665;28;20046;-60
2021/12/24 11:23:15;;;;;;;5.68;5.18;;;;;;;;;;5000031;28;20045;-60
2021/12/24 11:25:51;;;;;;;12.07;8.55;;;;;;;;;;5002024;28;20037;-59
2021/12/24 11:28:17;;;;;;;5.95;5.35;;;;;;;;;;4998449;28;20034;-59
2021/12/24 11:30:50;;;;;;;3.88;3.47;;;;;;;;;;5000710;28;20048;-60
2021/12/24 11:33:18;;;;;;;6.30;4.90;;;;;;;;;;5002463;28;20030;-60
2021/12/24 11:35:46;;;;;;;5.20;4.70;;;;;;;;;;5004802;28;20068;-59
2021/12/24 11:38:17;;;;;;;8.13;6.72;;;;;;;;;;5014011;28;20041;-59
2021/12/24 11:40:44;;;;;;;;;;;;;;;;;;5008321;28;20376;-59
2021/12/24 11:43:10;;;;;;;5.78;3.63;;;;;;;;;;5003366;28;20232;-59
2021/12/24 11:45:35;;;;;;;5.57;5.07;;;;;;;;;;5007016;28;20053;-58
2021/12/24 11:48:02;;;;;;;5.72;4.97;;;;;;;;;;5008368;28;20031;-59
2021/12/24 11:50:28;;;;;;;4.65;4.18;;;;;;;;;;5007166;28;20057;-59
2021/12/24 11:52:57;;;;;;;6.30;5.30;;;;;;;;;;5009344;28;20022;-59
2021/12/24 11:55:25;;;;;;;4.72;4.10;;;;;;;;;;5011537;28;20030;-59
2021/12/24 11:58:03;;;;;;;4.15;3.60;;;;;;;;;;5009109;28;20033;-58
2021/12/24 12:00:35;;;;;;;3.92;3.35;;;;;;;;;;5006633;28;20135;-59
2021/12/24 12:03:00;;;;;;;4.18;3.78;;;;;;;;;;5005030;28;20023;-58
2021/12/24 12:05:37;;;;;;;4.82;4.32;;;;;;;;;;5004188;28;20030;-59
2021/12/24 12:08:32;;;;;;;4.38;3.97;;;;;;;;;;5006625;28;20356;-59
2021/12/24 12:11:16;;;;;;;5.32;4.53;;;;;;;;;;5006063;28;20565;-58
2021/12/24 12:13:46;;;;;;;4.43;4.03;;;;;;;;;;5005703;28;20033;-58
2021/12/24 12:16:20;;;;;;;7.45;5.35;;;;;;;;;;5008672;28;20469;-59
2021/12/24 12:19:00;;;;;;;5.00;4.50;;;;;;;;;;5009998;28;20088;-59
2021/12/24 12:21:36;;;;;;;4.15;3.75;;;;;;;;;;5008324;28;20526;-59
2021/12/24 12:26:38;;;;;;;4.53;4.07;;;;;;;;;;5008470;28;20079;-58
2021/12/24 12:29:30;;;;;;;3.33;3.03;;;;;;;;;;5011138;28;20045;-59
2021/12/24 12:32:14;;;;;;;4.28;3.85;;;;;;;;;;5010600;28;20038;-59
2021/12/24 12:34:42;;;;;;;4.32;3.72;;;;;;;;;;5008676;28;20594;-59
2021/12/24 12:37:39;;;;;;;4.80;4.18;;;;;;;;;;5007554;28;20046;-58
2021/12/24 12:40:32;;;;;;;4.75;4.20;;;;;;;;;;5008975;28;20165;-59
2021/12/24 12:43:09;;;;;;;3.67;3.17;;;;;;;;;;5002300;28;20033;-59
2021/12/24 12:45:36;;;;;;;5.18;3.97;;;;;;;;;;5004024;28;20029;-59
2021/12/24 12:48:04;;;;;;;4.88;3.47;;;;;;;;;;5007332;28;20075;-59
2021/12/24 12:50:30;;;;;;;8.20;5.47;;;;;;;;;;5006293;28;20061;-58
2021/12/24 12:53:26;;;;;;;5.65;4.32;;;;;;;;;;5008922;28;20707;-58
2021/12/24 12:56:22;;;;;;;4.68;4.22;;;;;;;;;;5011297;28;20113;-59
2021/12/24 12:58:59;;;;;;;3.67;3.38;;;;;;;;;;4999109;28;20506;-59
2021/12/24 13:01:25;;;;;;;5.85;4.20;;;;;;;;;;5006791;28;20128;-58
2021/12/24 13:04:06;;;;;;;4.60;3.55;;;;;;;;;;5009432;28;22685;-59
2021/12/24 13:06:34;;;;;;;;;;;;;;;;;;5007900;28;20062;-59
2021/12/24 13:09:05;;;;;;;4.85;3.90;;;;;;;;;;5007984;28;19917;-60
2021/12/24 13:11:35;;;;;;;4.20;3.80;;;;;;;;;;5007022;28;20022;-59
2021/12/24 13:14:02;;;;;;;3.67;3.30;;;;;;;;;;5004508;28;20123;-59
2021/12/24 13:16:33;;;;;;;5.38;4.47;;;;;;;;;;5002675;28;20030;-59
2021/12/24 13:19:20;;;;;;;3.58;3.28;;;;;;;;;;4999816;28;20045;-59
2021/12/24 13:24:52;;;;;;;3.90;3.17;;;;;;;;;;5002536;28;20029;-60
2021/12/24 13:27:20;;;;;;;4.05;3.53;;;;;;;;;;5005245;28;20030;-60
2021/12/24 13:29:46;;;;;;;4.95;4.45;;;;;;;;;;5005899;28;20112;-59
2021/12/24 13:32:11;;;;;;;4.32;3.90;;;;;;;;;;5004655;28;20117;-59
2021/12/24 13:34:38;;;;;;;5.30;4.38;;;;;;;;;;5006284;28;20384;-60
2021/12/24 13:37:14;;;;;;;6.63;3.42;;;;;;;;;;5011331;28;20034;-60
2021/12/24 13:39:51;;;;;;;4.00;3.47;;;;;;;;;;4998411;28;20135;-59
2021/12/24 13:42:18;;;;;;;4.03;3.63;;;;;;;;;;5006218;28;20564;-59
2021/12/24 13:44:47;;;;;;;4.28;3.88;;;;;;;;;;5013646;28;20037;-59
2021/12/24 13:47:28;;;;;;;5.18;3.97;;;;;;;;;;5005588;28;20026;-59
2021/12/24 13:55:19;;;;;;;4.25;3.58;;;;;;;;;;5003569;28;20053;-60
2021/12/24 13:57:53;;;;;;;4.75;4.13;;;;;;;;;;5001943;28;20427;-60
2021/12/24 14:00:20;;;;;;;3.70;3.40;;;;;;;;;;5001771;28;20038;-60
2021/12/24 14:02:58;;;;;;;3.80;3.40;;;;;;;;;;5005967;28;20065;-60
2021/12/24 14:05:25;;;;;;;3.88;3.47;;;;;;;;;;5001984;28;20183;-59
2021/12/24 14:08:24;;;;;;;3.92;3.38;;;;;;;;;;4999762;28;20034;-60
2021/12/24 14:11:05;;;;;;;4.03;3.13;;;;;;;;;;4991405;28;20053;-60
2021/12/24 14:13:35;;;;;;;3.95;3.58;;;;;;;;;;5007732;28;20021;-60
2021/12/24 14:18:51;;;;;;;3.38;3.08;;;;;;;;;;4998627;28;20037;-60
2021/12/24 14:24:14;;;;;;;4.90;4.32;;;;;;;;;;5003366;28;20025;-58
2021/12/24 14:27:01;;;;;;;4.65;4.07;;;;;;;;;;4995426;28;20030;-58
2021/12/24 14:29:32;;;;;;;3.88;3.47;;;;;;;;;;5002584;28;20129;-60
2021/12/24 14:32:03;;;;;;;;;;;;;;;;;;5003094;28;20415;-61
2021/12/24 14:34:30;;;;;;;3.33;3.03;;;;;;;;;;4999610;28;19917;-60
2021/12/24 14:37:01;;;;;;;3.58;3.25;;;;;;;;;;5004856;28;20031;-60
2021/12/24 14:39:39;;;;;;;3.63;3.33;;;;;;;;;;5004935;28;20030;-60
2021/12/24 14:42:17;;;;;;;3.45;3.15;;;;;;;;;;5006799;28;20029;-60
2021/12/24 14:44:43;;;;;;;3.47;3.13;;;;;;;;;;5005416;28;20037;-60
2021/12/24 14:47:10;;;;;;;6.07;4.43;;;;;;;;;;5010648;28;20121;-60
2021/12/24 14:49:41;;;;;;;5.20;4.50;;;;;;;;;;5009141;28;20088;-60
2021/12/24 14:52:18;;;;;;;;;;;;;;;;;;5002742;28;20378;-60
2021/12/24 14:55:31;;;;;;;3.75;3.42;;;;;;;;;;5005031;28;20355;-61
2021/12/24 14:57:59;;;;;;;4.25;3.78;;;;;;;;;;4996613;28;20060;-61
2021/12/24 15:00:48;;;;;;;3.97;3.58;;;;;;;;;;5001308;28;20042;-61
2021/12/24 15:03:16;;;;;;;6.32;3.42;;;;;;;;;;5016849;28;20034;-61
2021/12/24 15:05:50;;;;;;;3.33;3.03;;;;;;;;;;5001651;28;20034;-61
2021/12/24 15:08:28;;;;;;;3.53;3.15;;;;;;;;;;5001488;28;20037;-61
2021/12/24 15:11:02;;;;;;;3.92;3.63;;;;;;;;;;5001101;28;20022;-61
2021/12/24 15:13:29;;;;;;;3.90;3.50;;;;;;;;;;5001882;28;20042;-61
2021/12/24 15:15:57;;;;;;;4.18;3.30;;;;;;;;;;5008054;28;20045;-62
2021/12/24 15:18:23;;;;;;;2.97;2.67;;;;;;;;;;5005121;28;20049;-61
2021/12/24 15:20:48;;;;;;;4.22;3.83;;;;;;;;;;5006862;28;20034;-61
2021/12/24 15:23:14;;;;;;;3.83;3.25;;;;;;;;;;5006325;28;20033;-61
2021/12/24 15:25:45;;;;;;;4.00;3.63;;;;;;;;;;5008436;28;20091;-60
2021/12/24 15:28:12;;;;;;;4.05;3.53;;;;;;;;;;5007916;28;20062;-60
2021/12/24 15:30:39;;;;;;;3.65;3.35;;;;;;;;;;5007507;28;20507;-60
2021/12/24 15:33:05;;;;;;;3.75;3.35;;;;;;;;;;5009756;28;20104;-60
2021/12/24 15:35:32;;;;;;;4.35;3.60;;;;;;;;;;5013993;28;20029;-60
2021/12/24 15:37:59;;;;;;;5.82;4.00;;;;;;;;;;5010100;28;20040;-60
2021/12/24 15:40:24;;;;;;;5.55;3.53;;;;;;;;;;5009007;28;20094;-59
2021/12/24 15:42:49;;;;;;;3.88;3.47;;;;;;;;;;5012067;28;20381;-60
2021/12/24 15:45:15;;;;;;;3.95;3.17;;;;;;;;;;5001868;28;20033;-60
2021/12/24 15:47:40;;;;;;;5.28;3.55;;;;;;;;;;4998972;28;20026;-60
2021/12/24 15:50:06;;;;;;;3.55;3.20;;;;;;;;;;5007932;28;20030;-59
2021/12/24 15:52:31;;;;;;;4.03;3.60;;;;;;;;;;5007716;28;20058;-60
2021/12/24 15:54:57;;;;;;;3.33;3.03;;;;;;;;;;5005274;28;20426;-60
2021/12/24 15:57:22;;;;;;;4.40;3.28;;;;;;;;;;5008389;28;20034;-60
2021/12/24 15:59:48;;;;;;;3.33;3.00;;;;;;;;;;5005631;28;20122;-60
2021/12/24 16:02:13;;;;;;;3.45;3.10;;;;;;;;;;5006480;28;20087;-60
2021/12/24 16:04:39;;;;;;;3.88;2.92;;;;;;;;;;5009918;28;20054;-61
2021/12/24 16:07:05;;;;;;;4.00;3.58;;;;;;;;;;5010412;28;20038;-61
2021/12/24 16:09:31;;;;;;;7.32;3.17;;;;;;;;;;5011507;28;20209;-60
2021/12/24 16:11:57;;;;;;;3.20;2.90;;;;;;;;;;5008882;28;20032;-61
2021/12/24 16:14:23;;;;;;;3.92;3.50;;;;;;;;;;5011038;28;20034;-60
2021/12/24 16:16:49;;;;;;;3.38;3.08;;;;;;;;;;5006927;28;20033;-60
2021/12/24 16:19:16;;;;;;;3.35;3.05;;;;;;;;;;5007730;28;20040;-61
2021/12/24 16:21:42;;;;;;;4.30;3.15;;;;;;;;;;5003197;28;20416;-60
2021/12/24 16:24:08;;;;;;;4.57;3.10;;;;;;;;;;5000960;28;20030;-60
2021/12/24 16:26:34;;;;;;;4.78;3.72;;;;;;;;;;5012107;28;20026;-60
2021/12/24 16:29:00;;;;;;;3.28;2.83;;;;;;;;;;5007215;28;20057;-57
2021/12/24 16:31:25;;;;;;;5.70;3.65;;;;;;;;;;5008932;28;20084;-58
2021/12/24 16:33:51;;;;;;;4.05;3.53;;;;;;;;;;5010225;28;20025;-60
2021/12/24 16:36:17;;;;;;;3.60;3.30;;;;;;;;;;5006676;28;20044;-60
2021/12/24 16:38:42;;;;;;;4.30;3.90;;;;;;;;;;5006507;28;20029;-60
2021/12/24 16:41:08;;;;;;;5.57;4.20;;;;;;;;;;5006054;28;20031;-60